Terminal Aerodrome Forecast
Issued by NWS Rapid City, SD

Home | Current Version | Previous Version | Text Only | Print | Product List | Glossary On
Versions: 1 2 3 4 5 6 7 8 9 10 11 12
000
FTUS43 KUNR 231720
TAFRAP
TAF
KRAP 231720Z 2318/2418 32025G37KT P6SM SKC
     FM232100 32018G25KT P6SM SKC
     FM240300 34006KT P6SM SKC
     FM241100 VRB03KT P6SM FEW250=

USA.gov is the U.S. government's official web portal to all federal, state and local government web resources and services.